Tiempo atmosférico en la estación meteorológica de Las Palmas de Gran Canaria, Tafira, Las Palmas (269 m.)



Fecha
DESCASC
Temp. máxima en grados centígrados (hora)
DESCASC
Temp. mínima en grados centígrados (hora)
DESCASC
Temp. media en grados centígrados
DESCASC
Racha de viento máxima en m/sg (hora)
DESCASC
Velocidad máxima media en intervalos de 10 minutos(hora)
DESCASC
Precipitaciones diarias en mm
DESCASC
Precipitaciones de 00:00 a 06:00 en mm
DESCASC
Precipitaciones de 06:00 a 12:00 en mm
DESCASC
Precipitaciones de 12:00 a 18:00 en mm
DESCASC
Precipitaciones de 18:00 a 24:00 en mm
DESCASC
13-10-2019 23.7 (12:40) 17.8 (06:50) 20.8 6.94 (13:00) 3.89 (13:10) 0 0 0 0 0
12-10-2019 23.3 (13:50) 18.7 (05:50) 21 6.94 (17:50) 4.44 (17:30) 0 0 0 0 0
11-10-2019 24.2 (14:40) 17.3 (04:50) 20.8 7.78 (17:20) 5 (16:20) 0 0 0 0 0
10-10-2019 23.4 (15:30) 18.5 (00:00) 20.9 6.11 (16:40) 3.33 (17:10) 0 0 0 0 0
09-10-2019 23.8 (16:20) 19.3 (00:00) 21.5 7.22 (16:00) 4.17 (03:20) 0 0 0 0 0
08-10-2019 23.8 (15:40) 19.4 (00:00) 21.6 6.67 (22:20) 4.17 (16:20) 0 0 0 0 0
07-10-2019 24.6 (15:20) 19.6 (00:00) 22.1 7.5 (21:20) 4.72 (18:00) 0 0 0 0 0
06-10-2019 23.5 (15:20) 19.4 (00:00) 21.4 6.67 (17:50) 4.17 (17:50) 0 0 0 0 0
05-10-2019 23.9 (13:40) 20.1 (00:00) 22 8.61 (14:10) 5.56 (15:00) 0 0 0 0 0
04-10-2019 23.7 (14:40) 19.7 (00:00) 21.7 9.17 (12:20) 5.83 (12:20) 0 0 0 0 0
03-10-2019 25.4 (14:00) 19.8 (00:00) 22.6 8.89 (23:59) 5.28 (23:59) 0 0 0 0 0
02-10-2019 28.4 (12:30) 19.2 (00:00) 23.8 6.11 (06:30) 2.78 (02:30) 0 0 0 0 0
01-10-2019 26.7 (16:10) 18.5 (00:00) 22.6 6.11 (00:10) 3.89 (04:10) 0 0 0 0 0
30-09-2019 26.5 (13:40) 18.4 (00:00) 22.4 9.72 (18:40) 5.56 (18:20) 0 0 0 0 0
29-09-2019 25.3 (15:00) 19.7 (00:00) 22.5 7.78 (19:50) 4.72 (18:20) 0 0 0 0 0
28-09-2019 23.5 (15:20) 18.9 (00:00) 21.2 6.94 (03:20) 3.89 (19:40) 0 0 0 0 0
27-09-2019 24.5 (15:00) 19.9 (00:00) 22.2 7.78 (14:20) 4.44 (13:50) 0 0 0 0 0
26-09-2019 24.3 (16:00) 20 (00:00) 22.1 7.22 (17:30) 3.89 (12:40) 0 0 0 0 0
25-09-2019 24.7 (14:40) 19.3 (00:00) 22 7.78 (16:00) 4.44 (14:00) 0 0 0 0 0
24-09-2019 24 (13:50) 19.2 (00:00) 21.6 8.89 (12:20) 5.28 (12:40) 0 0 0 0 0
23-09-2019 23.5 (15:50) 19 (00:00) 21.3 7.78 (15:50) 4.44 (15:30) 0.2 0.2 0 0 0
22-09-2019 26.6 (16:20) 18.9 (00:00) 22.8 6.67 (12:50) 3.89 (12:40) 1.6 0 0 0 1.6
21-09-2019 25.4 (15:10) 17.8 (00:00) 21.6 7.22 (15:40) 4.72 (15:40) 0 0 0 0 0
20-09-2019 24.5 (15:20) 19.4 (00:00) 21.9 7.22 (17:40) 4.17 (18:20) 0 0 0 0 0
19-09-2019 24 (14:20) 19.3 (00:00) 21.6 7.22 (15:50) 3.89 (12:30) 0 0 0 0 0
18-09-2019 24.5 (15:20) 19.4 (00:00) 21.9 6.39 (14:10) 3.61 (15:20) 0 0 0 0 0
17-09-2019 23.6 (15:30) 19.7 (00:00) 21.7 7.5 (00:10) 3.89 (01:30) 0 0 0 0 0
16-09-2019 23.2 (16:40) 20 (00:00) 21.6 11.67 (14:50) 5.83 (14:50) 2.2 0 0.2 2 0

Gráficas

Temp. máximas Temp. mínimas Temp. medias Precipitaciones Rachas de viento máximas Velocidades máximas media en intervalos de 10 minutos

Datos horarios

Fecha y hora oficial Temperatura (ºC) Velocidad del viento (km/h) Dirección del viento Racha (km/h) Dirección de racha Precipitación (mm) Presión (hPa) Tendencia (hPa) Humedad (%)
2019-10-15 23:00:00 19.4 5 Nordeste 15 Nordeste 0 -- -- 79
2019-10-15 22:00:00 19.5 5 Nordeste 17 Nordeste 0 -- -- 77
2019-10-15 21:00:00 19.5 4 Nordeste 13 Nordeste 0 -- -- 77
2019-10-15 20:00:00 19.4 6 Nordeste 15 Nordeste 0 -- -- 75
2019-10-15 19:00:00 19.6 5 Nordeste 14 Norte 0 -- -- 72
2019-10-15 18:00:00 19.7 7 Nordeste -- -- 0 -- -- 69
2019-10-15 17:00:00 20.2 5 Norte 16 Nordeste 0 -- -- 67
2019-10-15 16:00:00 20.1 8 Norte 18 Nordeste 0 -- -- 71
2019-10-15 15:00:00 20 6 Nordeste 18 Este 0 -- -- 75
2019-10-15 14:00:00 20 9 Este 22 Este 0 -- -- 78
2019-10-15 13:00:00 20.2 10 Nordeste 21 Este 0 -- -- 78
2019-10-15 12:00:00 21.1 8 Norte 16 Nordeste 0 -- -- 75
2019-10-15 11:00:00 20.9 5 Nordeste 15 Nordeste 0 -- -- 71
2019-10-15 10:00:00 20.6 6 Nordeste 15 Este 0 -- -- 72
2019-10-15 09:00:00 18.7 4 Nordeste 11 Este 0 -- -- 80
2019-10-15 08:00:00 18.4 2 Noroeste 9 Nordeste 0 -- -- 84
2019-10-15 07:00:00 18.2 4 Norte 18 Nordeste 0 -- -- 85
2019-10-15 06:00:00 18.5 0 Calma 9 Norte 0 -- -- 85
2019-10-15 05:00:00 18.3 4 Noroeste 15 Noroeste 0 -- -- 86
2019-10-15 04:00:00 18.2 4 Noroeste 12 Norte 0 -- -- 86
2019-10-15 03:00:00 17.9 4 Noroeste 10 Noroeste 0 -- -- 86
2019-10-15 02:00:00 17.8 4 Oeste 7 Oeste 0 -- -- 84
2019-10-15 01:00:00 18 4 Sudoeste 8 Sudoeste 0 -- -- 83
2019-10-15 00:00:00 18.1 4 Sudoeste 9 Oeste 0 -- -- 82
2019-10-14 23:00:00 18.3 4 Sudoeste 12 Oeste 0 -- -- 80
2019-10-14 22:00:00 18.6 3 Oeste 18 Noroeste 0 -- -- 79
2019-10-14 21:00:00 19.1 9 Noroeste 16 Noroeste 0 -- -- 81
2019-10-14 20:00:00 19.5 8 Noroeste 18 Noroeste 0 -- -- 79
2019-10-14 19:00:00 20.4 11 Noroeste 21 Noroeste 0 -- -- 77
2019-10-14 18:00:00 20.7 14 Noroeste 23 Noroeste 0 -- -- 72
2019-10-14 17:00:00 20.7 12 Noroeste 22 Noroeste 0 -- -- 77
2019-10-14 16:00:00 21.5 10 Noroeste 26 Noroeste 0 -- -- 72
2019-10-14 15:00:00 22.2 13 Noroeste 25 Noroeste 0 -- -- 70
2019-10-14 14:00:00 21.7 12 Norte 20 Noroeste 0 -- -- 71
2019-10-14 13:00:00 20.5 9 Norte 18 Noroeste 0 -- -- 78
2019-10-14 12:00:00 20 9 Norte 21 Nordeste 0 -- -- 83
2019-10-14 11:00:00 20.2 10 Noroeste 18 Noroeste 0 -- -- 79
2019-10-14 10:00:00 19.8 10 Noroeste 18 Noroeste 0 -- -- 80
2019-10-14 09:00:00 19.4 8 Norte 14 Norte 0 -- -- 84
2019-10-14 08:00:00 18.7 8 Noroeste 16 Noroeste 0 -- -- 87
2019-10-14 07:00:00 18.6 5 Oeste 10 Oeste 0 -- -- 89
2019-10-14 06:00:00 18.8 5 Noroeste 12 Oeste 0 -- -- 86
2019-10-14 05:00:00 18.7 5 Oeste 15 Oeste 0 -- -- 85
2019-10-14 04:00:00 18.5 8 Noroeste 18 Oeste 0 -- -- 82
2019-10-14 03:00:00 17.7 5 Oeste 11 Oeste 0 -- -- 81
2019-10-14 02:00:00 17.6 2 Oeste 9 Oeste 0 -- -- 78
2019-10-14 01:00:00 17.6 0 Calma 9 Oeste 0 -- -- 75
2019-10-14 00:00:00 18.1 4 Sudoeste 8 Sudoeste 0 -- -- 73
2019-10-13 23:00:00 18.4 4 Sudoeste 8 Sudoeste 0 -- -- 72
2019-10-13 22:00:00 18.7 4 Sudoeste 7 Sudoeste 0 -- -- 72
2019-10-13 21:00:00 19.1 3 Oeste 5 Noroeste 0 -- -- 73
2019-10-13 20:00:00 20.1 3 Noroeste 10 Nordeste 0 -- -- 70
2019-10-13 19:00:00 21.4 4 Nordeste 11 Norte 0 -- -- 66
2019-10-13 18:00:00 21.8 6 Norte 15 Norte 0 -- -- 62
2019-10-13 17:00:00 21.7 6 Norte 15 Norte 0 -- -- 63
2019-10-13 16:00:00 21.9 7 Norte 18 Norte 0 -- -- 61
2019-10-13 15:00:00 22.4 10 Noroeste 20 Noroeste 0 -- -- 60
2019-10-13 14:00:00 22.9 9 Nordeste 21 Norte 0 -- -- 60
2019-10-13 13:00:00 23.5 12 Norte 25 Norte 0 -- -- 57
2019-10-13 12:00:00 23.1 11 Norte 21 Noroeste 0 -- -- 58
2019-10-13 11:00:00 22.4 9 Noroeste 16 Noroeste 0 -- -- 61
2019-10-13 10:00:00 21 3 Noroeste 9 Sur 0 -- -- 62
2019-10-13 09:00:00 19 5 Sur 14 Sur 0 -- -- 69
2019-10-13 08:00:00 18.1 5 Sur 14 Sur 0 -- -- 71
2019-10-13 07:00:00 17.8 9 Sur 14 Sur 0 -- -- 71
2019-10-13 06:00:00 18.3 5 Sur 11 Sudoeste 0 -- -- 72
2019-10-13 05:00:00 18.4 7 Sur 10 Sur 0 -- -- 73
2019-10-13 04:00:00 18.4 3 Sur 9 Sur 0 -- -- 76
2019-10-13 03:00:00 18 5 Sur 7 Sur 0 -- -- 80
2019-10-13 02:00:00 18.5 3 Sudoeste 5 Sur 0 -- -- 85
2019-10-13 01:00:00 18.6 0 Calma 5 Noroeste 0 -- -- 86
2019-10-13 00:00:00 18.7 3 Noroeste 7 Oeste 0 -- -- 83
2019-10-12 23:00:00 19.6 4 Noroeste 15 Noroeste 0 -- -- 83
2019-10-12 22:00:00 19.8 8 Noroeste 17 Oeste 0 -- -- 82
2019-10-12 21:00:00 19.9 9 Noroeste 19 Noroeste 0 -- -- 82
2019-10-12 20:00:00 20.2 10 Noroeste 20 Noroeste 0 -- -- 80
2019-10-12 19:00:00 20.6 10 Norte 22 Noroeste 0 -- -- 77
2019-10-12 18:00:00 21 13 Noroeste 25 Noroeste 0 -- -- 74
2019-10-12 17:00:00 21.6 12 Norte 22 Norte 0 -- -- 70
2019-10-12 16:00:00 22.1 7 Nordeste 18 Nordeste 0 -- -- 71
2019-10-12 15:00:00 22.5 8 Nordeste 17 Nordeste 0 -- -- 69
2019-10-12 14:00:00 23.2 9 Nordeste 20 Este 0 -- -- 59
2019-10-12 13:00:00 22.4 6 Nordeste 18 Nordeste 0 -- -- 61
2019-10-12 12:00:00 21.9 8 Norte 19 Nordeste 0 -- -- 68
2019-10-12 11:00:00 21.2 6 Nordeste 17 Nordeste 0 -- -- 75
2019-10-12 10:00:00 20.9 6 Nordeste 12 Nordeste 0 -- -- 77
2019-10-12 09:00:00 19.6 6 Norte 12 Noroeste 0 -- -- 81
2019-10-12 08:00:00 19 2 Noroeste 6 Noroeste 0 -- -- 84
2019-10-12 07:00:00 18.9 4 Oeste 10 Oeste 0 -- -- 84
2019-10-12 06:00:00 18.8 5 Noroeste 10 Noroeste 0 -- -- 87
2019-10-12 05:00:00 19.1 6 Noroeste 16 Noroeste 0 -- -- 85
2019-10-12 04:00:00 19.4 9 Noroeste 19 Noroeste 0 -- -- 84
2019-10-12 03:00:00 19.4 7 Noroeste 14 Oeste 0 -- -- 84
2019-10-12 02:00:00 19 8 Oeste 17 Oeste 0 -- -- 85
2019-10-12 01:00:00 18.9 8 Oeste 15 Oeste 0 -- -- 85
2019-10-12 00:00:00 19.3 8 Noroeste 19 Noroeste 0 -- -- 85
2019-10-11 23:00:00 19.6 9 Noroeste 21 Noroeste 0 -- -- 83
2019-10-11 22:00:00 19.9 12 Noroeste 22 Noroeste 0 -- -- 82
2019-10-11 21:00:00 20.2 9 Noroeste 23 Noroeste 0 -- -- 82
2019-10-11 20:00:00 20.3 12 Noroeste 21 Noroeste 0 -- -- 80
2019-10-11 19:00:00 21.1 12 Noroeste 26 Norte 0 -- -- 77
2019-10-11 18:00:00 21.9 13 Noroeste 28 Noroeste 0 -- -- 72
2019-10-11 17:00:00 23.1 14 Noroeste 27 Noroeste 0 -- -- 67
2019-10-11 16:00:00 23.2 14 Noroeste 26 Noroeste 0 -- -- 65
2019-10-11 15:00:00 24.1 14 Norte 24 Noroeste 0 -- -- 61
2019-10-11 14:00:00 23.9 11 Noroeste 24 Norte 0 -- -- 61
2019-10-11 13:00:00 23.4 11 Norte 22 Noroeste 0 -- -- 63
2019-10-11 12:00:00 23.6 10 Norte 22 Norte 0 -- -- 59
2019-10-11 11:00:00 22.4 11 Noroeste 24 Noroeste 0 -- -- 66
2019-10-11 10:00:00 20.8 8 Noroeste 15 Oeste 0 -- -- 76
2019-10-11 09:00:00 18.7 8 Oeste 14 Oeste 0 -- -- 76
2019-10-11 08:00:00 17.8 6 Oeste 16 Oeste 0 -- -- 77
2019-10-11 07:00:00 17.7 6 Oeste 15 Oeste 0 -- -- 78
2019-10-11 06:00:00 17.8 8 Oeste 16 Oeste 0 -- -- 78
2019-10-11 05:00:00 17.3 6 Oeste 12 Oeste 0 -- -- 78
2019-10-11 04:00:00 17.5 5 Oeste 10 Oeste 0 -- -- 78
2019-10-11 03:00:00 17.8 6 Oeste 14 Sudoeste 0 -- -- 78
2019-10-11 02:00:00 18.1 7 Oeste 13 Oeste 0 -- -- 85
2019-10-11 01:00:00 18.9 3 Noroeste 8 Noroeste 0 -- -- 88
2019-10-11 00:00:00 19.6 5 Noroeste 12 Noroeste 0 -- -- 85
2019-10-10 23:00:00 20.1 5 Noroeste 13 Norte 0 -- -- 83
2019-10-10 22:00:00 20.3 8 Norte 15 Norte 0 -- -- 83
2019-10-10 21:00:00 20.5 7 Norte 15 Norte 0 -- -- 83
2019-10-10 20:00:00 20.7 8 Norte 17 Nordeste 0 -- -- 83
2019-10-10 19:00:00 21.3 10 Noroeste 19 Norte -- -- -- 81
2019-10-10 18:00:00 21.9 7 Noroeste 21 Noroeste 0 -- -- 78
2019-10-10 17:00:00 22.7 12 Noroeste 22 Norte 0 -- -- 72
2019-10-10 16:00:00 23.2 12 Noroeste 20 Norte 0 -- -- 66
2019-10-10 15:00:00 22.9 10 Noroeste 21 Noroeste 0 -- -- 63
2019-10-10 14:00:00 22.2 7 Norte 19 Nordeste 0 -- -- 74
2019-10-10 13:00:00 22 8 Nordeste 17 Nordeste 0 -- -- 74
2019-10-10 12:00:00 21.2 5 Norte 17 Nordeste 0 -- -- 76
2019-10-10 11:00:00 21.1 6 Noroeste 17 Noroeste 0 -- -- 82
2019-10-10 10:00:00 21.2 7 Noroeste 14 Noroeste 0 -- -- 80
2019-10-10 09:00:00 19.3 5 Oeste 10 Sudoeste 0 -- -- 79
2019-10-10 08:00:00 18.6 5 Oeste 10 Oeste 0 -- -- 83
2019-10-10 07:00:00 18.8 7 Oeste 15 Oeste 0 -- -- 84
2019-10-10 06:00:00 18.9 7 Oeste 14 Oeste 0 -- -- 83
2019-10-10 05:00:00 18.5 4 Oeste 9 Sudoeste 0 -- -- 81
2019-10-10 04:00:00 19.1 3 Oeste 9 Noroeste 0 -- -- 81
2019-10-10 03:00:00 19.1 3 Sudoeste 9 Sur 0 -- -- 77
2019-10-10 02:00:00 19.2 2 Sudoeste 11 Noroeste 0 -- -- 80
2019-10-10 01:00:00 19.9 6 Noroeste 13 Noroeste 0 -- -- 79
2019-10-10 00:00:00 20.3 9 Noroeste 18 Noroeste 0 -- -- 79
2019-10-09 23:00:00 20.3 8 Noroeste 20 Noroeste 0 -- -- 79
2019-10-09 22:00:00 20.3 9 Noroeste 18 Oeste 0 -- -- 78
2019-10-09 21:00:00 20.5 8 Noroeste 18 Noroeste 0 -- -- 75
2019-10-09 20:00:00 20.6 9 Noroeste 22 Norte 0 -- -- 72
2019-10-09 19:00:00 21.1 14 Noroeste 24 Noroeste 0 -- -- 73
2019-10-09 18:00:00 22.1 14 Noroeste 24 Noroeste 0 -- -- 68
2019-10-09 17:00:00 23.4 13 Norte 23 Norte 0 -- -- 66
2019-10-09 16:00:00 23.3 14 Noroeste 26 Noroeste 0 -- -- 64
2019-10-09 15:00:00 23.3 14 Noroeste 26 Noroeste 0 -- -- 66
2019-10-09 14:00:00 23.3 12 Noroeste 24 Noroeste 0 -- -- 65
2019-10-09 13:00:00 22.6 13 Noroeste 21 Noroeste 0 -- -- 70
2019-10-09 12:00:00 21.9 12 Noroeste 22 Noroeste 0 -- -- 69
2019-10-09 11:00:00 21.1 10 Noroeste 24 Noroeste 0 -- -- 74
2019-10-09 10:00:00 20.2 10 Noroeste 22 Noroeste 0 -- -- 76
2019-10-09 09:00:00 19.5 9 Noroeste 22 Noroeste 0 -- -- 79
2019-10-09 08:00:00 19.3 10 Noroeste 21 Noroeste 0 -- -- 79
2019-10-09 07:00:00 19.3 11 Noroeste 22 Noroeste 0 -- -- 78
2019-10-09 06:00:00 19.3 12 Noroeste 24 Oeste 0 -- -- 80
2019-10-09 05:00:00 19.3 12 Noroeste 23 Noroeste 0 -- -- 80
2019-10-09 04:00:00 19.4 13 Noroeste 24 Noroeste 0 -- -- 80
2019-10-09 03:00:00 19.4 12 Noroeste 24 Noroeste 0 -- -- 81
2019-10-09 02:00:00 19.5 13 Noroeste 21 Noroeste 0 -- -- 83
2019-10-09 01:00:00 19.3 12 Noroeste 22 Noroeste 0 -- -- 82
2019-10-09 00:00:00 19.4 10 Noroeste 21 Noroeste 0 -- -- 82
2019-10-08 23:00:00 19.5 12 Noroeste 24 Noroeste 0 -- -- 83
2019-10-08 22:00:00 19.7 11 Noroeste 21 Noroeste 0 -- -- 84
2019-10-08 21:00:00 19.9 11 Noroeste 22 Noroeste 0 -- -- 83
2019-10-08 20:00:00 20 12 Noroeste 20 Noroeste 0 -- -- 82
2019-10-08 19:00:00 21.1 13 Noroeste 23 Noroeste 0 -- -- 77
2019-10-08 18:00:00 22.2 12 Noroeste 23 Noroeste 0 -- -- 72
2019-10-08 17:00:00 23.3 14 Noroeste 24 Noroeste 0 -- -- 69
2019-10-08 16:00:00 23.4 12 Noroeste 22 Norte 0 -- -- 69
2019-10-08 15:00:00 23.3 9 Norte 19 Norte 0 -- -- 70
2019-10-08 14:00:00 22.9 10 Noroeste 23 Norte 0 -- -- 71
2019-10-08 13:00:00 22 12 Noroeste 24 Noroeste 0 -- -- 75
2019-10-08 12:00:00 21.3 13 Noroeste 22 Noroeste 0 -- -- 78
2019-10-08 11:00:00 20.7 13 Noroeste 22 Noroeste 0 -- -- 80
2019-10-08 10:00:00 20.2 12 Noroeste 21 Noroeste 0 -- -- 82
2019-10-08 09:00:00 19.8 10 Noroeste 21 Noroeste 0 -- -- 84
2019-10-08 08:00:00 19.7 11 Noroeste 20 Noroeste 0 -- -- 84
2019-10-08 07:00:00 19.6 9 Noroeste 22 Noroeste 0 -- -- 84
2019-10-08 06:00:00 19.8 11 Noroeste 19 Noroeste 0 -- -- 85
2019-10-08 05:00:00 19.9 8 Noroeste 16 Noroeste 0 -- -- 83
2019-10-08 04:00:00 20.1 7 Noroeste 17 Noroeste 0 -- -- 83
2019-10-08 03:00:00 20.2 7 Noroeste 13 Norte 0 -- -- 83
2019-10-08 02:00:00 20.2 6 Noroeste 16 Noroeste 0 -- -- 83
2019-10-08 01:00:00 20.2 10 Noroeste 19 Noroeste 0 -- -- 83
2019-10-08 00:00:00 20.2 12 Noroeste 24 Noroeste 0 -- -- 82
2019-10-07 23:00:00 20.1 14 Noroeste 23 Noroeste 0 -- -- 81
2019-10-07 22:00:00 20.4 13 Noroeste 27 Noroeste 0 -- -- 83
2019-10-07 21:00:00 20.4 15 Noroeste 26 Noroeste 0 -- -- 82
2019-10-07 20:00:00 20.6 14 Noroeste 23 Noroeste 0 -- -- 83
2019-10-07 19:00:00 20.9 17 Noroeste 26 Noroeste 0 -- -- 80
2019-10-07 18:00:00 21.8 17 Noroeste 25 Noroeste 0 -- -- 76
2019-10-07 17:00:00 22.7 13 Noroeste 24 Noroeste 0 -- -- 73
2019-10-07 16:00:00 24.3 13 Noroeste 22 Noroeste 0 -- -- 67
2019-10-07 15:00:00 24.1 10 Norte 19 Nordeste 0 -- -- 70
2019-10-07 14:00:00 23.5 9 Nordeste 18 Nordeste 0 -- -- 69
2019-10-07 13:00:00 23.3 9 Norte 18 Nordeste 0 -- -- 69
2019-10-07 12:00:00 22.4 5 Norte 16 Noroeste 0 -- -- 71
2019-10-07 11:00:00 21.3 5 Nordeste 13 Nordeste 0 -- -- 76
2019-10-07 10:00:00 20.6 6 Norte 13 Noroeste 0 -- -- 78
2019-10-07 09:00:00 19.9 6 Noroeste 15 Norte 0 -- -- 81
2019-10-07 08:00:00 19.8 6 Noroeste 17 Noroeste 0 -- -- 83
2019-10-07 07:00:00 19.7 8 Noroeste 18 Noroeste 0 -- -- 83
2019-10-07 06:00:00 19.7 8 Noroeste 15 Noroeste 0 -- -- 83
2019-10-07 05:00:00 19.6 7 Noroeste 18 Noroeste 0 -- -- 81
2019-10-07 04:00:00 19.7 8 Noroeste 15 Noroeste 0 -- -- 83
2019-10-07 03:00:00 19.7 10 Noroeste 19 Noroeste 0 -- -- 81
2019-10-07 02:00:00 19.9 9 Noroeste 18 Noroeste 0 -- -- 81
2019-10-07 01:00:00 20 9 Noroeste 21 Noroeste 0 -- -- 80
2019-10-07 00:00:00 20.1 9 Noroeste 21 Noroeste 0 -- -- 80
2019-10-06 23:00:00 20.2 10 Noroeste 22 Noroeste 0 -- -- 78
2019-10-06 22:00:00 20.3 12 Noroeste 18 Noroeste 0 -- -- 79
2019-10-06 21:00:00 20.5 12 Noroeste 21 Norte 0 -- -- 79
2019-10-06 20:00:00 20.7 9 Noroeste 21 Norte 0 -- -- 78
2019-10-06 19:00:00 21 11 Noroeste 22 Noroeste 0 -- -- 80
2019-10-06 18:00:00 21.9 10 Noroeste 24 Noroeste 0 -- -- 72
2019-10-06 17:00:00 22.2 10 Norte 22 Norte 0 -- -- 71
2019-10-06 16:00:00 22.7 8 Norte 21 Norte 0 -- -- 72
2019-10-06 15:00:00 23.2 11 Norte 21 Noroeste 0 -- -- 69
2019-10-06 14:00:00 22.1 9 Norte 22 Norte 0 -- -- 73
2019-10-06 13:00:00 21.8 10 Norte 19 Oeste 0 -- -- 76
2019-10-06 12:00:00 21.8 13 Noroeste 22 Noroeste 0 -- -- 74
2019-10-06 11:00:00 21.6 9 Noroeste 21 Noroeste 0 -- -- 77
2019-10-06 10:00:00 20.4 13 Noroeste 20 Noroeste 0 -- -- 83
2019-10-06 09:00:00 19.9 10 Noroeste 19 Noroeste 0 -- -- 84
2019-10-06 08:00:00 19.4 9 Noroeste 19 Noroeste 0 -- -- 84
2019-10-06 07:00:00 19.5 8 Noroeste 15 Oeste 0 -- -- 91
2019-10-06 06:00:00 19.4 8 Noroeste 20 Noroeste 0 -- -- 89
2019-10-06 05:00:00 19.6 8 Noroeste 15 Noroeste 0 -- -- 91
2019-10-06 04:00:00 19.6 8 Noroeste 19 Noroeste 0 -- -- 89
2019-10-06 03:00:00 19.9 10 Noroeste 18 Noroeste 0 -- -- 87
2019-10-06 02:00:00 20.1 8 Noroeste 22 Noroeste 0 -- -- 85
2019-10-06 01:00:00 20.1 10 Noroeste 21 Noroeste 0 -- -- 85
2019-10-06 00:00:00 20.2 10 Noroeste 20 Noroeste 0 -- -- 82
2019-10-05 23:00:00 20.3 12 Noroeste 23 Noroeste 0 -- -- 82
2019-10-05 22:00:00 20.5 14 Noroeste 25 Noroeste 0 -- -- 83
2019-10-05 21:00:00 20.5 15 Noroeste 26 Noroeste 0 -- -- 82
2019-10-05 20:00:00 20.9 14 Noroeste 27 Noroeste 0 -- -- 81
2019-10-05 19:00:00 21.4 14 Noroeste 27 Noroeste 0 -- -- 79
2019-10-05 18:00:00 21.8 14 Noroeste 27 Noroeste 0 -- -- 84
2019-10-05 17:00:00 23.1 15 Noroeste 28 Noroeste 0 -- -- 75
2019-10-05 16:00:00 23.6 14 Noroeste 30 Noroeste 0 -- -- 71
2019-10-05 15:00:00 23.1 20 Noroeste 31 Noroeste 0 -- -- 79
2019-10-05 14:00:00 23.5 17 Noroeste 29 Noroeste 0 -- -- 74
2019-10-05 13:00:00 23.2 15 Noroeste 27 Norte 0 -- -- 77
2019-10-05 12:00:00 22.1 12 Noroeste 22 Noroeste 0 -- -- 80
2019-10-05 11:00:00 21.5 13 Noroeste 23 Noroeste 0 -- -- 82
2019-10-05 10:00:00 21.1 9 Noroeste 24 Noroeste 0 -- -- 85
2019-10-05 09:00:00 20.6 8 Noroeste 23 Noroeste 0 -- -- 89
2019-10-05 08:00:00 20.5 10 Noroeste 19 Noroeste 0 -- -- 87
2019-10-05 07:00:00 20.4 8 Noroeste 20 Noroeste 0 -- -- 84
2019-10-05 06:00:00 20.2 9 Noroeste 24 Noroeste 0 -- -- 86
2019-10-05 05:00:00 20.2 11 Noroeste 23 Noroeste 0 -- -- 85
2019-10-05 04:00:00 20.1 16 Noroeste 24 Noroeste 0 -- -- 84
2019-10-05 03:00:00 20.2 12 Noroeste 22 Noroeste 0 -- -- 85
2019-10-05 02:00:00 20.1 10 Noroeste 25 Noroeste 0 -- -- 85
2019-10-05 01:00:00 20.1 13 Noroeste 23 Noroeste 0 -- -- 84
2019-10-05 00:00:00 20.2 13 Noroeste 27 Noroeste 0 -- -- 84
2019-10-04 23:00:00 20.1 14 Noroeste 31 Noroeste 0 -- -- 85
2019-10-04 22:00:00 20.3 15 Noroeste 29 Noroeste 0 -- -- 83
2019-10-04 21:00:00 20.4 16 Noroeste 31 Noroeste 0 -- -- 82
2019-10-04 20:00:00 20.6 15 Noroeste 29 Noroeste 0 -- -- 80
2019-10-04 19:00:00 21.3 19 Noroeste 30 Noroeste 0 -- -- 79
2019-10-04 18:00:00 21.8 16 Noroeste 31 Noroeste 0 -- -- 79
2019-10-04 17:00:00 22.2 18 Noroeste 32 Noroeste 0 -- -- 76
2019-10-04 16:00:00 22.7 19 Noroeste 31 Noroeste 0 -- -- 76
2019-10-04 15:00:00 23 20 Noroeste 29 Norte 0 -- -- 74
2019-10-04 14:00:00 23.4 16 Noroeste 30 Noroeste 0 -- -- 73
2019-10-04 13:00:00 23.2 17 Noroeste 33 Noroeste 0 -- -- 74
2019-10-04 12:00:00 22.9 19 Noroeste 31 Noroeste 0 -- -- 73
2019-10-04 11:00:00 21.6 14 Noroeste 26 Noroeste 0 -- -- 81
2019-10-04 10:00:00 20.9 13 Noroeste 27 Noroeste 0 -- -- 83
2019-10-04 09:00:00 20.1 15 Noroeste 30 Noroeste 0 -- -- 88
2019-10-04 08:00:00 19.8 15 Noroeste 30 Oeste 0 -- -- 88
2019-10-04 07:00:00 19.8 16 Noroeste 30 Oeste 0 -- -- 88
2019-10-04 06:00:00 19.8 17 Noroeste 30 Noroeste 0 -- -- 90
2019-10-04 05:00:00 19.8 16 Noroeste 30 Oeste 0 -- -- 89
2019-10-04 04:00:00 20 14 Noroeste 27 Noroeste 0 -- -- 89
2019-10-04 03:00:00 20 15 Oeste 27 Oeste 0 -- -- 88
2019-10-04 02:00:00 20.2 14 Noroeste 27 Oeste 0 -- -- 88
2019-10-04 01:00:00 20.2 17 Noroeste 30 Oeste 0 -- -- 87
2019-10-04 00:00:00 20.1 19 Noroeste 32 Oeste 0 -- -- 86
2019-10-03 23:00:00 20.4 15 Noroeste 27 Noroeste 0 -- -- 86
2019-10-03 22:00:00 20.7 15 Noroeste 27 Oeste 0 -- -- 85
2019-10-03 21:00:00 20.7 17 Noroeste 25 Noroeste 0 -- -- 86
2019-10-03 20:00:00 21.2 12 Noroeste 27 Noroeste 0 -- -- 83
2019-10-03 19:00:00 21.6 13 Noroeste 27 Noroeste 0 -- -- 81
2019-10-03 18:00:00 23 14 Noroeste 25 Noroeste 0 -- -- 76
2019-10-03 17:00:00 24.5 14 Noroeste 26 Noroeste 0 -- -- 72
2019-10-03 16:00:00 24.9 13 Noroeste 25 Noroeste 0 -- -- 68
2019-10-03 15:00:00 24.8 11 Norte 24 Noroeste 0 -- -- 70
2019-10-03 14:00:00 25.4 12 Noroeste 22 Norte 0 -- -- 70
2019-10-03 13:00:00 25.1 10 Norte 22 Noroeste 0 -- -- 70
2019-10-03 12:00:00 24.8 10 Norte 18 Norte 0 -- -- 70
2019-10-03 11:00:00 24.1 8 Noroeste 15 Noroeste 0 -- -- 73
2019-10-03 10:00:00 22.3 8 Noroeste 15 Noroeste 0 -- -- 81
2019-10-03 09:00:00 21.3 8 Noroeste 12 Noroeste 0 -- -- 78
2019-10-03 08:00:00 20.3 3 Oeste 9 Oeste 0 -- -- 66
2019-10-03 07:00:00 20.8 5 Sudoeste 13 Oeste 0 -- -- 65
2019-10-03 06:00:00 20.2 4 Oeste 8 Sudoeste 0 -- -- 65
2019-10-03 05:00:00 20.7 3 Sudoeste 10 Sudoeste 0 -- -- 59
2019-10-03 04:00:00 19.8 4 Oeste 9 Sudoeste 0 -- -- 66
2019-10-03 03:00:00 20.3 3 Oeste 12 Noroeste 0 -- -- 72
2019-10-03 02:00:00 20.6 4 Oeste 15 Sur 0 -- -- 78
2019-10-03 01:00:00 20.9 8 Noroeste 15 Noroeste 0 -- -- 89
2019-10-03 00:00:00 21.1 10 Noroeste 17 Oeste 0 -- -- 90
2019-10-02 23:00:00 21.2 6 Noroeste 12 Oeste 0 -- -- 86
2019-10-02 22:00:00 21.9 2 Oeste 5 Oeste 0 -- -- 65
2019-10-02 21:00:00 22.6 2 Oeste 5 Oeste 0 -- -- 63
2019-10-02 20:00:00 23.7 0 Calma 6 Nordeste -- -- -- 58
2019-10-02 19:00:00 24.6 4 Este 9 Nordeste 0 -- -- 60
2019-10-02 18:00:00 24.9 6 Nordeste 13 Nordeste 0 -- -- 64
2019-10-02 17:00:00 26.1 6 Nordeste 14 Este 0 -- -- 64
2019-10-02 16:00:00 26.2 5 Nordeste 13 Nordeste 0 -- -- 65
2019-10-02 15:00:00 26 8 Nordeste 15 Nordeste 0 -- -- 69
2019-10-02 14:00:00 27.1 8 Este 17 Este 0 -- -- 65
2019-10-02 13:00:00 28 7 Este 14 Nordeste 0 -- -- 61
2019-10-02 12:00:00 25.8 5 Este 12 Este 0 -- -- 68
2019-10-02 11:00:00 26.5 5 Este 9 Este 0 -- -- 66
2019-10-02 10:00:00 24.9 3 Este 7 Sudoeste 0 -- -- 63
2019-10-02 09:00:00 21.1 5 Oeste 10 Oeste 0 -- -- 81
2019-10-02 08:00:00 21.4 4 Sudoeste 16 Sudoeste 0 -- -- 35
2019-10-02 07:00:00 21.7 4 Sur 22 Oeste 0 -- -- 40
2019-10-02 06:00:00 20.1 7 Oeste 15 Sudoeste 0 -- -- 49
2019-10-02 05:00:00 20.4 4 Oeste 17 Sudoeste 0 -- -- 53
2019-10-02 04:00:00 19.4 9 Oeste 16 Oeste 0 -- -- 80
2019-10-02 03:00:00 20.1 9 Noroeste 18 Oeste 0 -- -- 93
2019-10-02 02:00:00 20.4 8 Oeste 15 Oeste 0 -- -- 92
2019-10-02 01:00:00 20.2 6 Noroeste 11 Noroeste 0 -- -- 91
2019-10-02 00:00:00 20.5 5 Oeste 10 Oeste 0 -- -- 89
2019-10-01 23:00:00 20.9 0 Calma 4 Noroeste 0 -- -- 86
2019-10-01 22:00:00 21.3 3 Noroeste 8 Oeste 0 -- -- 83
2019-10-01 21:00:00 22.2 5 Noroeste 7 Noroeste 0 -- -- 77
2019-10-01 20:00:00 23.3 3 Noroeste 8 Noroeste 0 -- -- 74
2019-10-01 19:00:00 24.7 5 Norte 9 Noroeste 0 -- -- 71
2019-10-01 18:00:00 25.3 5 Norte 12 Nordeste 0 -- -- 67
2019-10-01 17:00:00 25.2 6 Nordeste 14 Norte 0 -- -- 64
2019-10-01 16:00:00 26.5 6 Norte 15 Oeste 0 -- -- 57
2019-10-01 15:00:00 26.4 6 Norte 17 Noroeste 0 -- -- 63
2019-10-01 14:00:00 25.6 11 Noroeste 19 Noroeste 0 -- -- 71
2019-10-01 13:00:00 25.3 10 Noroeste 19 Noroeste 0 -- -- 70
2019-10-01 12:00:00 24.6 11 Noroeste 20 Noroeste 0 -- -- 76
2019-10-01 11:00:00 23.2 10 Noroeste 21 Noroeste 0 -- -- 82
2019-10-01 10:00:00 21.9 9 Noroeste 15 Oeste 0 -- -- 85
2019-10-01 09:00:00 20.2 9 Oeste 15 Oeste 0 -- -- 91
2019-10-01 08:00:00 19.4 6 Oeste 15 Oeste 0 -- -- 76
2019-10-01 07:00:00 19.1 5 Sudoeste 14 Oeste 0 -- -- 87
2019-10-01 06:00:00 19.6 8 Oeste 14 Noroeste 0 -- -- 91
2019-10-01 05:00:00 20 8 Oeste 17 Oeste 0 -- -- 85
2019-10-01 04:00:00 20.7 11 Oeste 17 Oeste 0 -- -- 72
2019-10-01 03:00:00 22.7 5 Sudoeste 14 Noroeste 0 -- -- 28
2019-10-01 02:00:00 22.4 4 Sudoeste 18 Sudoeste 0 -- -- 35
2019-10-01 01:00:00 21.2 6 Sudoeste 22 Oeste 0 -- -- 47
2019-10-01 00:00:00 20.4 9 Oeste 16 Oeste 0 -- -- 86
2019-09-30 23:00:00 20.2 8 Oeste 20 Oeste 0 -- -- 80
2019-09-30 22:00:00 20.6 11 Noroeste 23 Oeste 0 -- -- 89
2019-09-30 21:00:00 20.9 12 Noroeste 25 Noroeste 0 -- -- 87
2019-09-30 20:00:00 21.2 15 Noroeste 33 Noroeste 0 -- -- 87
2019-09-30 19:00:00 21.7 17 Noroeste 35 Oeste 0 -- -- 84
2019-09-30 18:00:00 22.8 19 Noroeste 32 Oeste 0 -- -- 79
2019-09-30 17:00:00 24 19 Noroeste 32 Noroeste 0 -- -- 75
2019-09-30 16:00:00 24.8 18 Noroeste 30 Noroeste 0 -- -- 73
2019-09-30 15:00:00 25.6 12 Noroeste 23 Noroeste 0 -- -- 70
2019-09-30 14:00:00 26 11 Noroeste 21 Noroeste 0 -- -- 68
2019-09-30 13:00:00 25.2 11 Noroeste 22 Noroeste 0 -- -- 72
2019-09-30 12:00:00 24.3 13 Noroeste 23 Noroeste 0 -- -- 75
2019-09-30 11:00:00 23.1 12 Noroeste 20 Noroeste 0 -- -- 80
2019-09-30 10:00:00 20.7 9 Oeste 20 Oeste 0 -- -- 89
2019-09-30 09:00:00 19.3 11 Oeste 21 Oeste 0 -- -- 92
2019-09-30 08:00:00 18.9 12 Oeste 23 Oeste 0 -- -- 93
2019-09-30 07:00:00 19 12 Oeste 26 Oeste 0 -- -- 93
2019-09-30 06:00:00 18.9 14 Oeste 24 Oeste 0 -- -- 93
2019-09-30 05:00:00 18.4 9 Oeste 22 Oeste 0 -- -- 90
2019-09-30 04:00:00 19 11 Oeste 20 Oeste 0 -- -- 92
2019-09-30 03:00:00 19.1 10 Oeste 21 Oeste 0 -- -- 91
2019-09-30 02:00:00 19.7 9 Noroeste 21 Noroeste 0 -- -- 89
2019-09-30 01:00:00 20.3 10 Noroeste 22 Noroeste 0 -- -- 88
2019-09-30 00:00:00 20.3 12 Noroeste 25 Noroeste 0 -- -- 88
2019-09-29 23:00:00 20.4 13 Noroeste 26 Oeste 0 -- -- 88
2019-09-29 22:00:00 20.5 15 Noroeste 28 Noroeste 0 -- -- 87
2019-09-29 21:00:00 20.7 15 Noroeste 28 Oeste 0 -- -- 87
2019-09-29 20:00:00 20.9 16 Noroeste 28 Noroeste 0 -- -- 86
2019-09-29 19:00:00 21.6 17 Noroeste 26 Oeste 0 -- -- 85
2019-09-29 18:00:00 22.8 15 Noroeste 22 Noroeste 0 -- -- 79
2019-09-29 17:00:00 24.6 11 Norte 21 Norte 0 -- -- 72
2019-09-29 16:00:00 25.2 9 Norte 18 Noroeste 0 -- -- 69
2019-09-29 15:00:00 25.3 8 Norte 16 Norte 0 -- -- 69
2019-09-29 14:00:00 24.6 9 Norte 16 Noroeste 0 -- -- 70
2019-09-29 13:00:00 24.2 9 Norte 19 Norte 0 -- -- 71
2019-09-29 12:00:00 23.4 7 Norte 21 Norte 0 -- -- 74
2019-09-29 11:00:00 22.3 8 Noroeste 15 Noroeste 0 -- -- 79
2019-09-29 10:00:00 20.6 7 Noroeste 16 Noroeste 0 -- -- 84
2019-09-29 09:00:00 20 8 Noroeste 17 Noroeste 0 -- -- 86
2019-09-29 08:00:00 19.8 7 Noroeste 14 Noroeste 0 -- -- 85
2019-09-29 07:00:00 19.8 8 Noroeste 17 Noroeste 0 -- -- 85
2019-09-29 06:00:00 19.8 10 Noroeste 20 Noroeste 0 -- -- 87
2019-09-29 05:00:00 19.8 10 Noroeste 21 Noroeste 0 -- -- 86
2019-09-29 04:00:00 19.8 11 Noroeste 19 Noroeste 0 -- -- 87
2019-09-29 03:00:00 19.9 10 Noroeste 22 Noroeste 0 -- -- 88
2019-09-29 02:00:00 19.9 11 Noroeste 22 Oeste 0 -- -- 87
2019-09-29 01:00:00 20 10 Noroeste 20 Noroeste 0 -- -- 87
2019-09-29 00:00:00 20 9 Noroeste 20 Noroeste 0 -- -- 87
2019-09-28 23:00:00 20 11 Noroeste 20 Noroeste 0 -- -- 87
2019-09-28 22:00:00 19.9 11 Noroeste 22 Noroeste 0 -- -- 85
2019-09-28 21:00:00 19.8 14 Noroeste 24 Noroeste 0 -- -- 85
2019-09-28 20:00:00 20.5 14 Noroeste 20 Noroeste 0 -- -- 82
2019-09-28 19:00:00 21.3 10 Norte 22 Noroeste 0 -- -- 79
2019-09-28 18:00:00 22.5 11 Noroeste 20 Noroeste 0 -- -- 74
2019-09-28 17:00:00 22.8 12 Noroeste 23 Noroeste 0 -- -- 72
2019-09-28 16:00:00 22.9 13 Norte 21 Noroeste 0 -- -- 72
2019-09-28 15:00:00 22.8 9 Nordeste 20 Norte 0 -- -- 72
2019-09-28 14:00:00 22.9 8 Norte 17 Norte 0 -- -- 71
2019-09-28 13:00:00 22.4 5 Nordeste 17 Norte 0 -- -- 74
2019-09-28 12:00:00 21.5 8 Norte 18 Nordeste 0 -- -- 76
2019-09-28 11:00:00 21.2 7 Norte 17 Nordeste 0 -- -- 81
2019-09-28 10:00:00 20.5 6 Norte 11 Noroeste 0 -- -- 83
2019-09-28 09:00:00 19.6 6 Noroeste 14 Noroeste 0 -- -- 88
2019-09-28 08:00:00 19.3 10 Noroeste 17 Noroeste 0 -- -- 89
2019-09-28 07:00:00 18.9 8 Noroeste 14 Noroeste 0 -- -- 90
2019-09-28 06:00:00 19 7 Noroeste 17 Noroeste 0 -- -- 89
2019-09-28 05:00:00 19.3 10 Noroeste 19 Noroeste 0 -- -- 89
2019-09-28 04:00:00 19.5 10 Noroeste 25 Noroeste 0 -- -- 90
2019-09-28 03:00:00 19.4 12 Noroeste 20 Noroeste 0 -- -- 89
2019-09-28 02:00:00 19.7 9 Noroeste 17 Noroeste 0 -- -- 89
2019-09-28 01:00:00 19.8 11 Noroeste 17 Noroeste 0 -- -- 88
2019-09-28 00:00:00 19.9 10 Noroeste 18 Noroeste 0 -- -- 88
2019-09-27 23:00:00 20.1 8 Noroeste 15 Noroeste 0 -- -- 87
2019-09-27 22:00:00 20 9 Noroeste 18 Oeste 0 -- -- 87
2019-09-27 21:00:00 20.1 9 Noroeste 21 Noroeste 0 -- -- 86
2019-09-27 20:00:00 20.8 10 Noroeste 21 Noroeste 0 -- -- 83
2019-09-27 19:00:00 21.4 13 Noroeste 22 Norte 0 -- -- 79
2019-09-27 18:00:00 22.1 14 Noroeste 24 Norte 0 -- -- 73
2019-09-27 17:00:00 22.5 13 Noroeste 25 Oeste 0 -- -- 71
2019-09-27 16:00:00 23 13 Noroeste 26 Norte 0 -- -- 71
2019-09-27 15:00:00 24.5 13 Noroeste 28 Norte 0 -- -- 65
2019-09-27 14:00:00 24.3 15 Noroeste 24 Noroeste 0 -- -- 66
2019-09-27 13:00:00 23.3 14 Noroeste 24 Noroeste 0 -- -- 68
2019-09-27 12:00:00 22.1 13 Norte 20 Noroeste 0 -- -- 72
2019-09-27 11:00:00 22.4 12 Noroeste 21 Noroeste 0 -- -- 72
2019-09-27 10:00:00 21.3 8 Norte 19 Noroeste 0 -- -- 77
2019-09-27 09:00:00 20.3 8 Noroeste 17 Noroeste 0 -- -- 84
2019-09-27 08:00:00 20 9 Noroeste 16 Oeste 0 -- -- 84
2019-09-27 07:00:00 20.1 9 Noroeste 19 Noroeste 0 -- -- 85
2019-09-27 06:00:00 20.3 10 Noroeste 19 Oeste 0 -- -- 86
2019-09-27 05:00:00 20.1 10 Noroeste 18 Noroeste 0 -- -- 83
2019-09-27 04:00:00 20.2 10 Noroeste 19 Noroeste 0 -- -- 83
2019-09-27 03:00:00 20.3 10 Noroeste 22 Noroeste 0 -- -- 83
2019-09-27 02:00:00 20.4 9 Noroeste 21 Noroeste 0 -- -- 84
2019-09-27 01:00:00 20.5 10 Noroeste 17 Noroeste 0 -- -- 83
2019-09-27 00:00:00 20.6 8 Noroeste 17 Noroeste 0 -- -- 80
2019-09-26 23:00:00 20.6 12 Noroeste 19 Norte 0 -- -- 80
2019-09-26 22:00:00 20.8 8 Noroeste 18 Noroeste 0 -- -- 83
2019-09-26 21:00:00 20.8 9 Noroeste 18 Noroeste 0 -- -- 78
2019-09-26 20:00:00 20.8 12 Noroeste 22 Noroeste 0 -- -- 78
2019-09-26 19:00:00 21.5 11 Noroeste 24 Noroeste 0 -- -- 76
2019-09-26 18:00:00 22.1 13 Noroeste 26 Norte 0 -- -- 73
2019-09-26 17:00:00 22.9 12 Norte 21 Noroeste 0 -- -- 75
2019-09-26 16:00:00 24.3 12 Norte 24 Noroeste 0 -- -- 68
2019-09-26 15:00:00 23.9 9 Norte 22 Noroeste 0 -- -- 69
2019-09-26 14:00:00 23.3 11 Norte 22 Norte 0 -- -- 69
2019-09-26 13:00:00 21.9 12 Noroeste 22 Noroeste 0 -- -- 80
2019-09-26 12:00:00 21.8 9 Noroeste 16 Noroeste 0 -- -- 81
2019-09-26 11:00:00 21.6 11 Noroeste 19 Noroeste 0 -- -- 77
2019-09-26 10:00:00 21.6 9 Norte 21 Noroeste 0 -- -- 78
2019-09-26 09:00:00 20.5 6 Noroeste 14 Norte 0 -- -- 86
2019-09-26 08:00:00 20.2 8 Noroeste 15 Noroeste 0 -- -- 88
2019-09-26 07:00:00 20.1 7 Noroeste 19 Noroeste 0 -- -- 87
2019-09-26 06:00:00 20.1 9 Noroeste 15 Noroeste 0 -- -- 87
2019-09-26 05:00:00 20.3 8 Noroeste 14 Noroeste 0 -- -- 88
2019-09-26 04:00:00 20.2 9 Noroeste 16 Oeste 0 -- -- 86
2019-09-26 03:00:00 20.2 6 Noroeste 13 Noroeste 0 -- -- 87
2019-09-26 02:00:00 20.3 6 Noroeste 14 Noroeste 0 -- -- 85
2019-09-26 01:00:00 20.3 6 Noroeste 24 Noroeste 0 -- -- 87
2019-09-26 00:00:00 20.4 9 Noroeste 15 Noroeste 0 -- -- 87
2019-09-25 23:00:00 20.6 6 Noroeste 18 Noroeste 0 -- -- 86
2019-09-25 22:00:00 20.7 10 Noroeste 24 Noroeste 0 -- -- 88
2019-09-25 21:00:00 20.7 12 Noroeste 22 Noroeste 0 -- -- 85
2019-09-25 20:00:00 20.9 11 Noroeste 22 Noroeste 0 -- -- 83
2019-09-25 19:00:00 21.6 11 Noroeste 26 Noroeste 0 -- -- 80
2019-09-25 18:00:00 22.5 12 Noroeste 25 Noroeste 0 -- -- 76
2019-09-25 17:00:00 23.6 14 Noroeste 25 Noroeste 0 -- -- 72
2019-09-25 16:00:00 24.2 15 Noroeste 28 Norte 0 -- -- 68
2019-09-25 15:00:00 24.5 16 Noroeste 27 Noroeste 0 -- -- 64
2019-09-25 14:00:00 24.2 16 Noroeste 27 Noroeste 0 -- -- 65
2019-09-25 13:00:00 23.6 13 Norte 25 Noroeste 0 -- -- 70
2019-09-25 12:00:00 23.3 12 Noroeste 26 Norte 0 -- -- 72
2019-09-25 11:00:00 22 13 Noroeste 26 Noroeste 0 -- -- 74
2019-09-25 10:00:00 21.4 15 Noroeste 25 Noroeste 0 -- -- 79
2019-09-25 09:00:00 19.9 12 Noroeste 19 Noroeste 0 -- -- 85
2019-09-25 08:00:00 19.3 10 Noroeste 21 Noroeste 0 -- -- 86
2019-09-25 07:00:00 19.4 12 Noroeste 23 Noroeste 0 -- -- 85
2019-09-25 06:00:00 19.6 13 Noroeste 24 Oeste 0 -- -- 84
2019-09-25 05:00:00 19.5 11 Noroeste 25 Noroeste 0 -- -- 85
2019-09-25 04:00:00 19.5 11 Noroeste 21 Noroeste 0 -- -- 85
2019-09-25 03:00:00 19.8 12 Noroeste 21 Norte 0 -- -- 81
2019-09-25 02:00:00 20 10 Noroeste 19 Noroeste 0 -- -- 79
2019-09-25 01:00:00 20.1 12 Noroeste 23 Noroeste 0 -- -- 78
2019-09-25 00:00:00 20.1 10 Noroeste 20 Noroeste 0 -- -- 77
2019-09-24 23:00:00 20.2 13 Noroeste 24 Noroeste 0 -- -- 77
2019-09-24 22:00:00 20.2 13 Noroeste 23 Noroeste 0 -- -- 76
2019-09-24 21:00:00 20.3 12 Noroeste 23 Noroeste 0 -- -- 76
2019-09-24 20:00:00 20.6 11 Noroeste 26 Noroeste 0 -- -- 76
2019-09-24 19:00:00 21.1 15 Noroeste 25 Noroeste 0 -- -- 73
2019-09-24 18:00:00 21.9 14 Noroeste 26 Norte 0 -- -- 70
2019-09-24 17:00:00 22.7 13 Noroeste 28 Noroeste 0 -- -- 67
2019-09-24 16:00:00 22.7 17 Noroeste 30 Noroeste 0 -- -- 69
2019-09-24 15:00:00 22.9 17 Norte 31 Noroeste 0 -- -- 68
2019-09-24 14:00:00 23.8 15 Noroeste 27 Noroeste 0 -- -- 63
2019-09-24 13:00:00 22.7 14 Noroeste 32 Noroeste 0 -- -- 70
2019-09-24 12:00:00 22.6 16 Noroeste 27 Noroeste 0 -- -- 71
2019-09-24 11:00:00 21.8 15 Noroeste 25 Noroeste 0 -- -- 76
2019-09-24 10:00:00 21.1 14 Noroeste 24 Noroeste 0 -- -- 82
2019-09-24 09:00:00 19.3 10 Noroeste 19 Noroeste 0 -- -- 90
2019-09-24 08:00:00 19.6 10 Noroeste 19 Noroeste 0 -- -- 87
2019-09-24 07:00:00 19.6 10 Norte 19 Norte 0 -- -- 86
2019-09-24 06:00:00 19.6 8 Noroeste 17 Noroeste 0 -- -- 89
2019-09-24 05:00:00 19.3 6 Noroeste 14 Oeste 0 -- -- 91
2019-09-24 04:00:00 19.3 7 Noroeste 15 Noroeste 0 -- -- 89
2019-09-24 03:00:00 19.3 6 Noroeste 13 Noroeste 0 -- -- 88
2019-09-24 02:00:00 19.5 5 Noroeste 12 Noroeste 0 -- -- 88
2019-09-24 01:00:00 19.5 7 Noroeste 14 Noroeste 0 -- -- 86
2019-09-24 00:00:00 19.9 8 Noroeste 16 Noroeste 0 -- -- 85
2019-09-23 23:00:00 20 7 Noroeste 14 Noroeste 0 -- -- 86
2019-09-23 22:00:00 20.1 9 Noroeste 19 Noroeste 0 -- -- 85
2019-09-23 21:00:00 20.4 10 Noroeste 19 Oeste 0 -- -- 84
2019-09-23 20:00:00 20.7 9 Noroeste 19 Oeste 0 -- -- 82
2019-09-23 19:00:00 21.6 12 Noroeste 24 Noroeste 0 -- -- 77
2019-09-23 18:00:00 22.8 12 Noroeste 26 Oeste 0 -- -- 72
2019-09-23 17:00:00 23.2 16 Noroeste 26 Noroeste 0 -- -- 71
2019-09-23 16:00:00 23.3 14 Noroeste 28 Noroeste 0 -- -- 67
2019-09-23 15:00:00 22.4 13 Noroeste 24 Nordeste 0 -- -- 73
2019-09-23 14:00:00 23.3 10 Norte 25 Norte 0 -- -- 73
2019-09-23 13:00:00 21.6 11 Noroeste 19 Nordeste 0 -- -- 76
2019-09-23 12:00:00 21.5 10 Norte 22 Noroeste 0 -- -- 77
2019-09-23 11:00:00 21.8 11 Norte 21 Norte 0 -- -- 78
2019-09-23 10:00:00 20.2 11 Noroeste 19 Noroeste 0 -- -- 86
2019-09-23 09:00:00 19.7 8 Noroeste 18 Noroeste 0 -- -- 89
2019-09-23 08:00:00 19.3 9 Noroeste 17 Noroeste 0 -- -- 91
2019-09-23 07:00:00 19 8 Noroeste 21 Noroeste 0 -- -- 91
2019-09-23 06:00:00 19.6 15 Noroeste 24 Noroeste 0 -- -- 93
2019-09-23 05:00:00 19.8 10 Noroeste 19 Noroeste 0 -- -- 95
2019-09-23 04:00:00 20.1 9 Noroeste 15 Noroeste 0 -- -- 95
2019-09-23 03:00:00 20.2 8 Noroeste 15 Noroeste 0 -- -- 95
2019-09-23 02:00:00 20.5 9 Noroeste 13 Noroeste 0.2 -- -- 95
2019-09-23 01:00:00 20.6 4 Oeste 9 Noroeste 0 -- -- 95
2019-09-23 00:00:00 20.5 7 Noroeste 18 Norte 0.2 -- -- 95
2019-09-22 23:00:00 20.9 8 Norte 16 Noroeste 1 -- -- 93
2019-09-22 22:00:00 21 9 Norte 18 Norte 0 -- -- 92
2019-09-22 21:00:00 21.2 9 Norte 24 Norte 0.4 -- -- 94
2019-09-22 20:00:00 21.8 12 Noroeste 23 Noroeste 0 -- -- 91
2019-09-22 19:00:00 22.8 12 Noroeste 19 Noroeste 0 -- -- 86
2019-09-22 18:00:00 24.6 11 Noroeste 21 Noroeste 0 -- -- 74
2019-09-22 17:00:00 26 10 Norte 23 Norte 0 -- -- 68
2019-09-22 16:00:00 26.1 9 Noroeste 22 Noroeste 0 -- -- 69
2019-09-22 15:00:00 25.8 13 Norte 23 Norte 0 -- -- 70
2019-09-22 14:00:00 26 12 Norte 24 Norte 0 -- -- 67
2019-09-22 13:00:00 25.9 13 Norte 24 Norte 0 -- -- 66
2019-09-22 12:00:00 25.8 11 Noroeste 22 Noroeste 0 -- -- 68
2019-09-22 11:00:00 24.5 10 Noroeste 18 Noroeste 0 -- -- 68
2019-09-22 10:00:00 22.7 8 Noroeste 13 Noroeste 0 -- -- 71
2019-09-22 09:00:00 20.5 5 Noroeste 11 Oeste 0 -- -- 80
2019-09-22 08:00:00 19 3 Sudoeste 11 Oeste 0 -- -- 84
2019-09-22 07:00:00 19.1 5 Oeste 14 Noroeste 0 -- -- 85
2019-09-22 06:00:00 19.4 6 Oeste 14 Noroeste 0 -- -- 87
2019-09-22 05:00:00 19.1 6 Noroeste 11 Oeste 0 -- -- 84
2019-09-22 04:00:00 19.6 5 Oeste 14 Noroeste 0 -- -- 84
2019-09-22 03:00:00 19.8 7 Oeste 15 Oeste 0 -- -- 85
2019-09-22 02:00:00 19.9 9 Oeste 19 Oeste 0 -- -- 85
2019-09-22 01:00:00 20.2 9 Noroeste 18 Noroeste 0 -- -- 87
2019-09-22 00:00:00 20.5 11 Noroeste 19 Oeste 0 -- -- 87
2019-09-21 23:00:00 20.9 10 Noroeste 18 Noroeste 0 -- -- 86
2019-09-21 22:00:00 20.8 9 Noroeste 19 Noroeste 0 -- -- 85
2019-09-21 21:00:00 20.8 11 Noroeste 17 Noroeste 0 -- -- 83
2019-09-21 20:00:00 21.4 10 Noroeste 19 Noroeste 0 -- -- 80
2019-09-21 19:00:00 22.9 10 Noroeste 19 Noroeste 0 -- -- 74
2019-09-21 18:00:00 23.7 12 Noroeste 23 Noroeste 0 -- -- 71
2019-09-21 17:00:00 24.8 13 Noroeste 25 Norte 0 -- -- 65
2019-09-21 16:00:00 24.7 17 Noroeste 26 Noroeste 0 -- -- 66
2019-09-21 15:00:00 25.3 13 Noroeste 23 Norte 0 -- -- 62
2019-09-21 14:00:00 25.2 13 Noroeste 26 Noroeste 0 -- -- 65
2019-09-21 13:00:00 24.6 13 Norte 23 Noroeste 0 -- -- 64
2019-09-21 12:00:00 24.3 9 Norte 18 Norte 0 -- -- 66
2019-09-21 11:00:00 23 9 Noroeste 18 Oeste 0 -- -- 72
2019-09-21 10:00:00 21.6 10 Noroeste 17 Noroeste 0 -- -- 77
2019-09-21 09:00:00 19.4 8 Noroeste 13 Oeste 0 -- -- 85
2019-09-21 08:00:00 17.8 4 Oeste 9 Sudoeste 0 -- -- 85
2019-09-21 07:00:00 18.1 3 Sudoeste 10 Oeste 0 -- -- 84
2019-09-21 06:00:00 18.8 5 Oeste 10 Oeste 0 -- -- 83
2019-09-21 05:00:00 19.4 2 Noroeste 9 Oeste 0 -- -- 81
2019-09-21 04:00:00 20.1 5 Noroeste 12 Noroeste 0 -- -- 81
2019-09-21 03:00:00 20.1 3 Noroeste 9 Noroeste 0 -- -- 81
2019-09-21 02:00:00 20.2 4 Noroeste 13 Noroeste 0 -- -- 83
2019-09-21 01:00:00 20.3 5 Noroeste 12 Noroeste 0 -- -- 83
2019-09-21 00:00:00 20.2 4 Oeste 9 Oeste 0 -- -- 85
2019-09-20 23:00:00 20.1 5 Noroeste 12 Noroeste 0 -- -- 85
2019-09-20 22:00:00 20.5 7 Noroeste 15 Noroeste 0 -- -- 83
2019-09-20 21:00:00 20.8 7 Noroeste 19 Noroeste 0 -- -- 84
2019-09-20 20:00:00 21.2 10 Noroeste 17 Noroeste 0 -- -- 79
2019-09-20 19:00:00 22.5 10 Noroeste 25 Noroeste 0 -- -- 73
2019-09-20 18:00:00 23.1 14 Noroeste 26 Noroeste 0 -- -- 71
2019-09-20 17:00:00 24.2 13 Noroeste 25 Noroeste 0 -- -- 66
2019-09-20 16:00:00 24.3 12 Norte 21 Noroeste 0 -- -- 64
2019-09-20 15:00:00 24.3 12 Noroeste 22 Norte 0 -- -- 66
2019-09-20 14:00:00 24.1 9 Noroeste 19 Noroeste 0 -- -- 65
2019-09-20 13:00:00 23 9 Norte 19 Noroeste 0 -- -- 71
2019-09-20 12:00:00 22.1 9 Noroeste 17 Noroeste 0 -- -- 78
2019-09-20 11:00:00 21.9 7 Noroeste 12 Noroeste 0 -- -- 76
2019-09-20 10:00:00 20.6 8 Noroeste 14 Norte 0 -- -- 84
2019-09-20 09:00:00 20.1 8 Oeste 15 Noroeste 0 -- -- 85
2019-09-20 08:00:00 19.5 9 Noroeste 18 Oeste 0 -- -- 86
2019-09-20 07:00:00 19.6 10 Noroeste 19 Oeste 0 -- -- 86
2019-09-20 06:00:00 19.6 10 Noroeste 21 Noroeste 0 -- -- 88
2019-09-20 05:00:00 19.6 11 Noroeste 19 Noroeste 0 -- -- 89
2019-09-20 04:00:00 19.5 9 Noroeste 19 Noroeste 0 -- -- 88
2019-09-20 03:00:00 19.7 10 Noroeste 20 Noroeste 0 -- -- 88
2019-09-20 02:00:00 19.7 9 Noroeste 18 Noroeste 0 -- -- 89
2019-09-20 01:00:00 19.6 9 Noroeste 22 Noroeste 0 -- -- 89
2019-09-20 00:00:00 19.8 10 Noroeste 22 Noroeste 0 -- -- 89
2019-09-19 23:00:00 20.2 11 Noroeste 22 Noroeste 0 -- -- 88
2019-09-19 22:00:00 20.3 12 Noroeste 21 Noroeste 0 -- -- 88
2019-09-19 21:00:00 20.4 11 Noroeste 19 Noroeste 0 -- -- 87
2019-09-19 20:00:00 20.9 9 Noroeste 17 Noroeste 0 -- -- 85
2019-09-19 19:00:00 21.4 12 Noroeste 22 Noroeste 0 -- -- 82
2019-09-19 18:00:00 22.5 11 Noroeste 23 Oeste 0 -- -- 76
2019-09-19 17:00:00 23.1 10 Noroeste 23 Noroeste 0 -- -- 74
2019-09-19 16:00:00 23.4 10 Norte 26 Norte 0 -- -- 71
2019-09-19 15:00:00 23.6 11 Noroeste 21 Noroeste 0 -- -- 71
2019-09-19 14:00:00 23.2 13 Noroeste 22 Noroeste 0 -- -- 73
2019-09-19 13:00:00 22.9 9 Noroeste 25 Noroeste 0 -- -- 73
2019-09-19 12:00:00 22.2 9 Noroeste 17 Noroeste 0 -- -- 74
2019-09-19 11:00:00 21.5 7 Norte 19 Noroeste 0 -- -- 78
2019-09-19 10:00:00 21 9 Norte 21 Noroeste 0 -- -- 78
2019-09-19 09:00:00 20 6 Noroeste 13 Noroeste 0 -- -- 88
2019-09-19 08:00:00 19.5 3 Noroeste 10 Oeste 0 -- -- 88
2019-09-19 07:00:00 19.5 5 Noroeste 16 Noroeste 0 -- -- 85
2019-09-19 06:00:00 19.7 9 Noroeste 18 Noroeste 0 -- -- 86
2019-09-19 05:00:00 19.6 8 Noroeste 15 Noroeste 0 -- -- 85
2019-09-19 04:00:00 19.7 6 Noroeste 14 Norte 0 -- -- 86
2019-09-19 03:00:00 19.8 6 Noroeste 15 Noroeste 0 -- -- 86
2019-09-19 02:00:00 19.9 5 Noroeste 12 Noroeste 0 -- -- 86
2019-09-19 01:00:00 20.1 5 Norte 15 Norte 0 -- -- 85
2019-09-19 00:00:00 20.3 6 Norte 12 Noroeste 0 -- -- 85
2019-09-18 23:00:00 20.5 6 Noroeste 15 Noroeste 0 -- -- 84
2019-09-18 22:00:00 20.6 4 Noroeste 13 Norte 0 -- -- 83
2019-09-18 21:00:00 20.8 6 Norte 19 Noroeste 0 -- -- 83
2019-09-18 20:00:00 21 8 Noroeste 17 Norte 0 -- -- 81
2019-09-18 19:00:00 21.6 8 Nordeste 14 Norte 0 -- -- 77
2019-09-18 18:00:00 21.8 6 Norte 16 Norte 0 -- -- 73
2019-09-18 17:00:00 22.5 7 Norte 19 Nordeste 0 -- -- 73
2019-09-18 16:00:00 22.5 9 Nordeste 21 Nordeste 0 -- -- 77
2019-09-18 15:00:00 23.8 11 Norte 23 Norte 0 -- -- 68
2019-09-18 14:00:00 23.7 9 Norte 22 Noroeste 0 -- -- 68
2019-09-18 13:00:00 23.5 9 Noroeste 20 Noroeste 0 -- -- 70
2019-09-18 12:00:00 22.7 8 Nordeste 18 Norte 0 -- -- 70
2019-09-18 11:00:00 21.8 5 Norte 17 Norte 0 -- -- 74
2019-09-18 10:00:00 20.6 6 Norte 14 Norte 0 -- -- 80
2019-09-18 09:00:00 19.8 5 Noroeste 12 Nordeste 0 -- -- 80
2019-09-18 08:00:00 19.6 3 Norte 9 Norte 0 -- -- 84
2019-09-18 07:00:00 19.4 5 Norte 12 Norte 0 -- -- 82
2019-09-18 06:00:00 19.6 6 Noroeste 16 Noroeste 0 -- -- 86
2019-09-18 05:00:00 19.5 7 Noroeste 17 Noroeste 0 -- -- 85
2019-09-18 04:00:00 19.9 9 Noroeste 15 Noroeste 0 -- -- 88
2019-09-18 03:00:00 20 7 Noroeste 12 Noroeste 0 -- -- 88
2019-09-18 02:00:00 20 6 Noroeste 13 Noroeste 0 -- -- 86
2019-09-18 01:00:00 20.2 3 Norte 10 Noroeste 0 -- -- 87
2019-09-18 00:00:00 20.3 6 Noroeste 13 Noroeste 0 -- -- 86
2019-09-17 23:00:00 20.4 7 Noroeste 12 Noroeste 0 -- -- 86
2019-09-17 22:00:00 20.4 6 Noroeste 13 Noroeste 0 -- -- 85
2019-09-17 21:00:00 20.4 7 Noroeste 14 Noroeste 0 -- -- 84
2019-09-17 20:00:00 20.8 8 Noroeste 15 Noroeste 0 -- -- 83